Time;durP1;ratioP1;P1;durP2;ratioP2;P2;SDS_P1;SDS_P2;PMS_P1;PMS_P2;Temp;Humidity;BMP_temperature;BMP_pressure;BME280_temperature;BME280_humidity;BME280_pressure;Samples;Min_cycle;Max_cycle;Signal;HPM_P1;HPM_P2
2022/05/01 00:01:42;;;;;;;5.75;3.30;;;;;;;20.48;25.35;100151.09;5108623;28;20110;-70
2022/05/01 00:04:08;;;;;;;7.03;3.30;;;;;;;20.48;25.38;100148.41;5111646;28;20036;-70
2022/05/01 00:06:33;;;;;;;4.78;2.67;;;;;;;20.47;25.41;100154.78;5112706;28;20036;-69
2022/05/01 00:09:00;;;;;;;7.07;3.20;;;;;;;20.47;25.31;100144.03;5111748;28;20043;-71
2022/05/01 00:11:26;;;;;;;12.90;3.40;;;;;;;20.49;25.21;100153.59;5114263;28;20390;-69
2022/05/01 00:13:52;;;;;;;5.30;3.22;;;;;;;20.50;25.34;100149.91;5110026;28;20068;-69
2022/05/01 00:16:17;;;;;;;9.32;3.70;;;;;;;20.50;25.28;100146.41;5111852;28;20118;-68
2022/05/01 00:18:44;;;;;;;7.25;3.53;;;;;;;20.54;25.39;100156.63;5112097;28;20050;-69
2022/05/01 00:21:10;;;;;;;6.60;3.42;;;;;;;20.55;25.03;100152.06;5109942;28;20046;-67
2022/05/01 00:23:35;;;;;;;4.68;3.15;;;;;;;20.53;25.09;100152.25;5112265;28;20032;-69
2022/05/01 00:26:04;;;;;;;6.03;3.15;;;;;;;20.40;25.31;100160.00;5111160;28;20101;-70
2022/05/01 00:28:32;;;;;;;9.07;4.07;;;;;;;20.22;25.33;100154.81;5111234;28;20118;-66
2022/05/01 00:30:57;;;;;;;8.52;3.40;;;;;;;20.05;25.54;100152.13;5110734;28;20051;-70
2022/05/01 00:38:51;;;;;;;8.68;4.55;;;;;;;19.63;25.83;100150.41;5117010;28;20424;-67
2022/05/01 00:41:17;;;;;;;7.25;3.83;;;;;;;19.55;25.98;100156.59;5113641;28;20031;-67
2022/05/01 00:44:01;;;;;;;7.28;3.47;;;;;;;19.46;26.16;100161.09;5115405;28;20058;-65
2022/05/01 00:46:28;;;;;;;7.57;3.78;;;;;;;19.39;26.17;100157.38;5114256;28;20404;-65
2022/05/01 00:48:53;;;;;;;8.27;3.85;;;;;;;19.31;26.18;100152.81;5115715;28;20036;-65
2022/05/01 00:51:20;;;;;;;12.80;3.50;;;;;;;19.26;26.16;100151.63;5114824;28;20402;-64
2022/05/01 00:53:50;;;;;;;10.75;3.45;;;;;;;19.17;26.30;100151.63;5115240;28;20044;-63
2022/05/01 00:56:16;;;;;;;12.70;3.25;;;;;;;19.10;26.36;100145.19;5114762;28;20029;-64
2022/05/01 00:58:43;;;;;;;7.35;3.60;;;;;;;19.04;26.21;100156.59;5116395;28;20099;-64
2022/05/01 01:01:10;;;;;;;9.40;4.10;;;;;;;18.97;26.43;100151.00;5115465;28;20471;-64
2022/05/01 01:03:35;;;;;;;9.07;3.05;;;;;;;18.93;26.18;100165.72;5115946;28;20081;-64
2022/05/01 01:06:01;;;;;;;8.55;3.35;;;;;;;18.87;26.11;100151.13;5114876;28;20119;-64
2022/05/01 01:08:26;;;;;;;7.15;3.40;;;;;;;18.82;26.27;100149.91;5115218;28;20027;-65
2022/05/01 01:10:52;;;;;;;5.85;3.20;;;;;;;18.78;26.32;100156.59;5114448;28;20051;-65
2022/05/01 01:13:26;;;;;;;4.90;3.60;;;;;;;18.73;26.26;100160.59;5115435;28;20535;-65
2022/05/01 01:15:53;;;;;;;7.20;3.42;;;;;;;18.69;26.41;100155.69;5115265;28;20031;-65
2022/05/01 01:18:19;;;;;;;6.90;3.15;;;;;;;18.67;26.34;100157.69;5113682;28;20035;-65
2022/05/01 01:20:44;;;;;;;7.10;3.35;;;;;;;18.66;26.15;100162.22;5113659;28;20845;-64
2022/05/01 01:23:10;;;;;;;5.10;3.13;;;;;;;18.64;26.00;100155.31;5114691;28;20042;-64
2022/05/01 01:25:36;;;;;;;5.65;3.08;;;;;;;18.62;26.17;100152.81;5115243;28;20128;-64
2022/05/01 01:28:05;;;;;;;7.40;3.30;;;;;;;18.58;26.30;100154.97;5113037;28;20042;-64
2022/05/01 01:33:17;;;;;;;6.97;3.25;;;;;;;18.51;26.07;100150.41;5115125;28;20084;-64
2022/05/01 01:35:45;;;;;;;10.10;3.25;;;;;;;18.50;26.21;100159.44;5113775;28;20047;-64
2022/05/01 01:38:10;;;;;;;4.65;3.17;;;;;;;18.48;26.41;100158.75;5114601;28;20027;-64
2022/05/01 01:40:48;;;;;;;5.28;2.80;;;;;;;18.42;26.16;100144.97;5114264;28;20089;-64
2022/05/01 01:43:18;;;;;;;5.55;2.90;;;;;;;18.41;26.23;100145.97;5114424;28;20406;-64
2022/05/01 01:45:43;;;;;;;5.00;2.70;;;;;;;18.38;26.38;100140.91;5114803;28;20463;-64
2022/05/01 01:48:10;;;;;;;4.10;2.63;;;;;;;18.36;26.36;100136.72;5114403;28;20114;-64
2022/05/01 01:50:35;;;;;;;5.47;2.65;;;;;;;18.34;26.13;100152.13;5113306;28;20114;-63
2022/05/01 01:53:01;;;;;;;4.05;2.42;;;;;;;18.33;26.27;100145.94;5114115;28;20119;-64
2022/05/01 01:55:27;;;;;;;4.90;2.33;;;;;;;18.32;26.37;100151.44;5114390;28;20417;-64
2022/05/01 01:57:52;;;;;;;7.43;2.53;;;;;;;18.29;26.28;100150.75;5114610;28;20041;-64
2022/05/01 02:00:18;;;;;;;4.45;2.60;;;;;;;18.28;26.34;100157.13;5113874;28;20024;-64
2022/05/01 02:02:43;;;;;;;7.38;2.35;;;;;;;18.26;26.31;100159.09;5095572;28;20070;-64
2022/05/01 02:05:09;;;;;;;6.57;2.35;;;;;;;18.26;26.46;100152.91;5114388;28;20042;-64
2022/05/01 02:07:34;;;;;;;9.52;3.00;;;;;;;18.25;26.20;100156.56;5113565;28;20067;-64
2022/05/01 02:10:00;;;;;;;5.47;2.50;;;;;;;18.23;25.93;100148.69;5095104;28;20043;-64
2022/05/01 02:12:27;;;;;;;4.28;2.40;;;;;;;18.23;26.40;100145.19;5114228;28;20109;-64
2022/05/01 02:14:53;;;;;;;7.57;2.50;;;;;;;18.23;26.46;100159.41;5114451;28;20135;-65
2022/05/01 02:17:18;;;;;;;4.47;2.78;;;;;;;18.21;26.42;100156.03;5112984;28;20506;-64
2022/05/01 02:19:44;;;;;;;4.15;3.10;;;;;;;18.20;26.28;100157.03;5114042;28;20032;-64
2022/05/01 02:22:09;;;;;;;4.70;2.80;;;;;;;18.20;26.09;100164.25;5107309;28;20032;-64
2022/05/01 02:24:35;;;;;;;4.15;2.13;;;;;;;18.20;26.41;100159.72;5113723;28;20035;-64
2022/05/01 02:27:01;;;;;;;4.30;2.28;;;;;;;18.20;26.35;100157.03;5112850;28;20043;-64
2022/05/01 02:29:27;;;;;;;5.55;2.75;;;;;;;18.20;26.37;100159.72;5113420;28;20052;-64
2022/05/01 02:31:56;;;;;;;4.18;2.55;;;;;;;18.20;26.54;100162.41;5113002;28;20491;-65
2022/05/01 02:34:23;;;;;;;5.93;2.58;;;;;;;18.21;26.55;100161.41;5113054;28;20043;-65
2022/05/01 02:36:51;;;;;;;4.82;2.58;;;;;;;18.21;26.40;100165.94;5113890;28;20043;-64
2022/05/01 02:39:20;;;;;;;5.90;2.35;;;;;;;18.22;26.21;100167.63;5114289;28;20036;-65
2022/05/01 02:41:46;;;;;;;3.75;2.00;;;;;;;18.22;26.48;100163.09;5113376;28;20042;-65
2022/05/01 02:44:11;;;;;;;4.90;2.38;;;;;;;18.23;26.37;100162.09;5113464;28;20038;-65
2022/05/01 02:46:38;;;;;;;4.97;2.40;;;;;;;18.25;26.29;100164.59;5112918;28;20035;-65
2022/05/01 02:49:07;;;;;;;7.38;2.35;;;;;;;18.27;26.53;100168.81;5113691;28;20451;-64
2022/05/01 02:51:32;;;;;;;7.20;2.15;;;;;;;18.26;26.75;100161.78;5112347;28;20043;-65
2022/05/01 02:53:59;;;;;;;7.47;2.13;;;;;;;18.28;26.51;100159.78;5113262;28;20393;-65
2022/05/01 02:56:25;;;;;;;4.18;2.17;;;;;;;18.29;26.46;100171.34;5112818;28;20035;-65
2022/05/01 02:58:50;;;;;;;4.88;2.40;;;;;;;18.32;26.40;100170.19;5112933;28;20039;-65
2022/05/01 03:01:16;;;;;;;6.47;2.55;;;;;;;18.32;26.63;100165.69;5111960;28;20038;-65
2022/05/01 03:03:41;;;;;;;4.20;2.38;;;;;;;18.34;26.57;100163.69;5113184;28;20035;-65
2022/05/01 03:06:07;;;;;;;3.35;1.95;;;;;;;18.36;26.74;100169.72;5113036;28;20038;-65
2022/05/01 03:08:33;;;;;;;2.90;1.95;;;;;;;18.42;26.26;100170.94;5112727;28;20402;-64
2022/05/01 03:10:58;;;;;;;4.35;2.25;;;;;;;18.45;26.19;100167.97;5112531;28;20410;-65
2022/05/01 03:13:24;;;;;;;4.50;2.50;;;;;;;18.51;26.24;100161.94;5112662;28;20042;-65
2022/05/01 03:15:49;;;;;;;4.80;1.83;;;;;;;18.58;26.24;100163.03;5112873;28;20039;-64
2022/05/01 03:23:45;;;;;;;4.85;1.85;;;;;;;19.00;25.91;100164.09;5112580;28;20123;-65
2022/05/01 03:26:11;;;;;;;6.07;1.90;;;;;;;19.23;25.87;100168.03;5111066;28;20038;-65
2022/05/01 03:28:36;;;;;;;3.42;1.90;;;;;;;19.46;25.69;100166.47;5112261;28;20114;-65
2022/05/01 03:31:08;;;;;;;5.70;1.85;;;;;;;19.65;25.36;100162.63;5112062;28;20066;-65
2022/05/01 03:33:35;;;;;;;6.15;2.00;;;;;;;19.86;25.09;100173.91;5112234;28;20031;-65
2022/05/01 03:36:05;;;;;;;3.95;1.88;;;;;;;20.00;24.97;100177.81;5113412;28;20035;-65
2022/05/01 03:38:30;;;;;;;4.13;1.88;;;;;;;20.12;24.90;100173.81;5112185;28;20367;-65
2022/05/01 03:40:56;;;;;;;2.53;1.70;;;;;;;20.26;24.89;100177.63;5111932;28;20047;-65
2022/05/01 03:43:21;;;;;;;4.20;2.00;;;;;;;20.37;24.74;100179.16;5113136;28;20063;-65
2022/05/01 03:45:47;;;;;;;7.78;1.80;;;;;;;20.43;24.54;100176.63;5113008;28;20535;-65
2022/05/01 03:48:12;;;;;;;3.00;2.10;;;;;;;20.54;24.78;100175.44;5112249;28;20134;-65
2022/05/01 03:50:38;;;;;;;3.78;1.92;;;;;;;20.71;24.60;100184.31;5112418;28;20092;-64
2022/05/01 03:53:05;;;;;;;4.15;2.28;;;;;;;20.85;24.48;100184.63;5110872;28;20042;-65
2022/05/01 03:55:33;;;;;;;6.07;2.22;;;;;;;20.99;24.23;100175.03;5095346;28;20028;-65
2022/05/01 03:57:59;;;;;;;2.90;1.65;;;;;;;21.10;24.26;100171.13;5112753;28;20540;-65
2022/05/01 04:00:25;;;;;;;2.20;1.73;;;;;;;21.17;24.09;100180.16;5112159;28;20115;-64
2022/05/01 04:02:52;;;;;;;4.60;2.17;;;;;;;21.20;24.24;100179.81;5112421;28;20031;-64
2022/05/01 04:05:17;;;;;;;2.85;2.05;;;;;;;21.24;24.06;100181.16;5112276;28;20035;-64
2022/05/01 04:07:44;;;;;;;4.07;2.35;;;;;;;21.25;24.09;100172.03;5116542;28;20051;-65
2022/05/01 04:10:11;;;;;;;3.58;1.92;;;;;;;21.28;24.21;100162.78;5116611;28;20116;-65
2022/05/01 04:12:38;;;;;;;5.38;2.50;;;;;;;21.30;24.16;100166.16;5117193;28;20027;-64
2022/05/01 04:15:07;;;;;;;6.32;2.28;;;;;;;21.33;24.06;100174.72;5116087;28;20031;-64
2022/05/01 04:17:40;;;;;;;4.30;2.13;;;;;;;21.39;23.96;100170.47;5116163;28;20557;-64
2022/05/01 04:20:12;;;;;;;5.28;2.88;;;;;;;21.52;24.08;100175.28;5116291;28;20028;-64
2022/05/01 04:22:44;;;;;;;3.92;2.03;;;;;;;21.69;23.98;100172.53;5115581;28;20036;-64
2022/05/01 04:25:20;;;;;;;3.97;2.00;;;;;;;21.86;23.94;100182.16;5115252;28;20062;-63
2022/05/01 04:27:48;;;;;;;5.00;1.88;;;;;;;22.07;23.88;100186.06;5113937;28;20055;-64
2022/05/01 04:30:16;;;;;;;5.47;1.75;;;;;;;22.26;23.76;100184.72;5115915;28;20104;-63
2022/05/01 04:32:57;;;;;;;8.13;3.25;;;;;;;22.47;23.44;100181.34;5115134;28;20055;-63
2022/05/01 04:35:29;;;;;;;4.03;1.77;;;;;;;22.60;23.43;100185.28;5116219;28;20444;-63
2022/05/01 04:37:59;;;;;;;4.95;1.98;;;;;;;22.77;23.13;100181.41;5116036;28;20050;-63
2022/05/01 04:40:35;;;;;;;5.10;1.95;;;;;;;23.06;23.08;100173.50;5116361;28;20027;-63
2022/05/01 04:43:05;;;;;;;5.55;2.10;;;;;;;23.36;22.85;100178.88;5115583;28;20043;-63
2022/05/01 04:45:32;;;;;;;6.43;1.80;;;;;;;23.62;22.95;100175.63;5115645;28;20536;-64
2022/05/01 04:47:58;;;;;;;5.22;1.80;;;;;;;23.87;22.86;100178.81;5115208;28;20057;-64
2022/05/01 04:50:24;;;;;;;2.72;1.60;;;;;;;24.12;22.32;100177.63;5115721;28;20034;-64
2022/05/01 04:52:50;;;;;;;3.75;1.75;;;;;;;24.33;22.61;100174.91;5113792;28;20031;-63
2022/05/01 04:55:16;;;;;;;2.47;1.63;;;;;;;24.52;22.48;100175.22;5114895;28;20058;-64
2022/05/01 04:57:41;;;;;;;3.10;1.92;;;;;;;24.75;22.03;100183.09;5114985;28;20505;-64
2022/05/01 05:00:07;;;;;;;3.63;2.05;;;;;;;24.93;22.17;100176.34;5115846;28;20117;-64
2022/05/01 05:02:38;;;;;;;7.47;1.80;;;;;;;25.11;22.05;100167.69;5115100;28;20031;-64
2022/05/01 05:05:05;;;;;;;;;;;;;;;25.19;22.25;100172.94;5115377;28;20081;-64
2022/05/01 05:07:31;;;;;;;3.20;1.60;;;;;;;25.37;21.60;100180.50;5115398;28;19923;-64
2022/05/01 05:09:57;;;;;;;9.02;1.95;;;;;;;25.44;21.67;100178.66;5114913;28;20028;-64
2022/05/01 05:12:22;;;;;;;3.15;1.65;;;;;;;25.51;21.96;100175.16;5114396;28;20494;-64
2022/05/01 05:14:51;;;;;;;5.05;1.60;;;;;;;25.63;21.70;100175.41;5114542;28;20490;-64
2022/05/01 05:17:20;;;;;;;1.90;1.10;;;;;;;25.73;21.64;100173.94;5115073;28;20042;-64
2022/05/01 05:19:46;;;;;;;1.83;1.27;;;;;;;25.85;21.64;100170.66;5116018;28;20382;-64
2022/05/01 05:22:11;;;;;;;3.85;1.45;;;;;;;25.91;21.28;100175.25;5114911;28;20038;-64
2022/05/01 05:24:37;;;;;;;3.30;1.52;;;;;;;25.97;21.72;100173.56;5114221;28;20051;-64
2022/05/01 05:27:03;;;;;;;5.88;1.60;;;;;;;26.02;21.42;100171.94;5113774;28;20038;-64
2022/05/01 05:29:29;;;;;;;2.40;1.30;;;;;;;26.05;21.24;100167.97;5115023;28;20506;-64
2022/05/01 05:31:54;;;;;;;1.85;1.30;;;;;;;26.12;21.34;100155.25;5115225;28;20031;-64
2022/05/01 05:34:20;;;;;;;2.22;1.42;;;;;;;26.15;21.26;100165.69;5114543;28;20477;-64
2022/05/01 05:36:45;;;;;;;6.30;1.58;;;;;;;26.17;21.44;100169.03;5113916;28;20031;-65
2022/05/01 05:39:11;;;;;;;1.85;1.30;;;;;;;26.23;21.30;100161.13;5114212;28;20065;-66
2022/05/01 05:41:37;;;;;;;2.45;1.20;;;;;;;26.20;21.22;100163.22;5113899;28;20406;-66
2022/05/01 05:44:03;;;;;;;3.65;1.27;;;;;;;25.95;21.10;100157.53;5114646;28;20042;-66
2022/05/01 05:46:28;;;;;;;1.88;1.00;;;;;;;25.73;21.37;100154.16;5114279;28;20118;-65
2022/05/01 05:48:54;;;;;;;3.83;1.20;;;;;;;25.55;21.61;100165.59;5115592;28;20031;-65
2022/05/01 05:51:19;;;;;;;4.28;1.40;;;;;;;25.29;21.68;100159.03;5114075;28;20036;-65
2022/05/01 05:53:45;;;;;;;2.55;1.50;;;;;;;25.06;21.91;100156.63;5113379;28;20406;-66
2022/05/01 05:56:10;;;;;;;2.80;1.23;;;;;;;24.84;22.10;100148.59;5098825;28;20039;-65
2022/05/01 05:58:36;;;;;;;2.67;1.15;;;;;;;24.61;22.00;100152.41;5106184;28;20035;-65
2022/05/01 06:01:01;;;;;;;2.47;1.50;;;;;;;24.36;22.18;100150.13;5114364;28;20027;-66
2022/05/01 06:03:27;;;;;;;1.70;1.08;;;;;;;24.12;22.30;100148.69;5113778;28;20513;-65
2022/05/01 06:05:52;;;;;;;3.70;1.65;;;;;;;23.93;22.57;100147.47;5113803;28;20039;-65
2022/05/01 06:08:18;;;;;;;4.82;1.90;;;;;;;23.75;22.38;100143.34;5113801;28;20042;-65
2022/05/01 06:10:44;;;;;;;3.20;1.40;;;;;;;23.61;22.65;100142.41;5114035;28;20478;-65
2022/05/01 06:13:09;;;;;;;4.22;1.52;;;;;;;23.47;22.91;100149.50;5114256;28;20027;-65
2022/05/01 06:15:37;;;;;;;2.92;1.65;;;;;;;23.33;23.00;100142.28;5113209;28;20031;-65
2022/05/01 06:18:02;;;;;;;1.23;0.90;;;;;;;23.22;22.93;100153.56;5113973;28;20050;-64
2022/05/01 06:20:28;;;;;;;2.83;1.20;;;;;;;23.13;23.18;100150.09;5113220;28;20032;-65
2022/05/01 06:22:53;;;;;;;2.55;1.70;;;;;;;23.06;23.29;100146.50;5113792;28;20036;-65
2022/05/01 06:25:19;;;;;;;3.70;1.27;;;;;;;23.00;23.15;100153.50;5113736;28;20034;-65
2022/05/01 06:27:44;;;;;;;2.13;1.08;;;;;;;22.93;23.11;100142.63;5113874;28;20080;-65
2022/05/01 06:30:11;;;;;;;1.55;1.10;;;;;;;22.88;23.08;100138.78;5112794;28;20076;-65
2022/05/01 06:32:40;;;;;;;2.28;1.33;;;;;;;22.84;22.90;100144.56;5113264;28;20820;-65
2022/05/01 06:35:07;;;;;;;2.38;1.33;;;;;;;22.77;23.26;100137.41;5113532;28;20491;-65
2022/05/01 06:37:37;;;;;;;3.05;1.20;;;;;;;22.70;22.94;100138.13;5113784;28;20119;-65
2022/05/01 06:40:04;;;;;;;2.17;1.30;;;;;;;22.69;22.99;100141.03;5112962;28;20509;-65
2022/05/01 06:42:33;;;;;;;4.03;0.98;;;;;;;22.65;22.78;100134.31;5112559;28;20043;-65
2022/05/01 06:44:59;;;;;;;2.95;1.33;;;;;;;22.57;22.88;100137.94;5113634;28;20536;-65
2022/05/01 06:47:25;;;;;;;2.60;1.88;;;;;;;22.52;22.80;100141.19;5113655;28;20036;-65
2022/05/01 06:49:51;;;;;;;1.77;1.23;;;;;;;22.46;22.87;100133.84;5112784;28;20066;-64
2022/05/01 06:52:23;;;;;;;1.73;1.17;;;;;;;22.44;22.63;100135.88;5111024;28;20531;-65
2022/05/01 06:54:52;;;;;;;2.88;1.65;;;;;;;22.37;22.61;100135.75;5097438;28;20061;-65
2022/05/01 06:57:18;;;;;;;2.25;1.38;;;;;;;22.32;22.69;100124.69;5112487;28;20035;-65
2022/05/01 06:59:44;;;;;;;2.45;1.38;;;;;;;22.31;22.59;100128.41;5113515;28;20084;-65
2022/05/01 07:02:09;;;;;;;3.70;1.30;;;;;;;22.28;22.54;100122.56;5111325;28;20071;-65
2022/05/01 07:04:35;;;;;;;2.05;1.40;;;;;;;22.27;22.71;100110.91;5113036;28;20031;-64
2022/05/01 07:07:01;;;;;;;2.45;1.33;;;;;;;22.32;22.63;100119.31;5112132;28;20036;-64
2022/05/01 07:09:26;;;;;;;2.53;1.20;;;;;;;22.37;22.51;100103.41;5112750;28;20482;-64
2022/05/01 07:11:51;;;;;;;2.22;1.42;;;;;;;22.38;22.50;100110.47;5111614;28;20047;-64
2022/05/01 07:14:17;;;;;;;3.33;1.20;;;;;;;22.41;22.33;100111.97;5113401;28;20123;-64
2022/05/01 07:16:42;;;;;;;2.67;1.33;;;;;;;22.33;22.27;100114.75;5113012;28;20035;-64
2022/05/01 07:19:08;;;;;;;3.50;1.40;;;;;;;22.27;22.48;100102.00;5113147;28;20031;-64
2022/05/01 07:21:34;;;;;;;2.17;1.08;;;;;;;22.28;22.14;100104.50;5111476;28;20180;-64
2022/05/01 07:24:00;;;;;;;1.55;1.25;;;;;;;22.28;22.18;100112.59;5112773;28;20537;-64
2022/05/01 07:26:33;;;;;;;3.35;1.15;;;;;;;22.25;22.15;100107.56;5113044;28;20042;-64
2022/05/01 07:29:02;;;;;;;2.85;1.17;;;;;;;22.23;21.96;100105.06;5112549;28;20035;-65
2022/05/01 07:31:28;;;;;;;2.45;1.15;;;;;;;22.22;22.43;100108.78;5112646;28;20035;-64
2022/05/01 07:33:53;;;;;;;2.30;1.08;;;;;;;22.24;22.21;100106.75;5088633;28;20043;-64
2022/05/01 07:36:19;;;;;;;2.30;1.48;;;;;;;22.25;22.19;100108.44;5112287;28;20066;-64
2022/05/01 07:38:46;;;;;;;1.70;1.02;;;;;;;22.25;22.18;100108.44;5112910;28;20042;-64
2022/05/01 07:41:12;;;;;;;1.65;0.75;;;;;;;22.25;22.12;100100.34;5112472;28;20084;-65
2022/05/01 07:43:38;;;;;;;3.55;0.98;;;;;;;22.22;22.12;100100.69;5111342;28;20059;-65
2022/05/01 07:46:04;;;;;;;2.08;1.20;;;;;;;22.21;22.13;100101.72;5111306;28;20031;-65
2022/05/01 07:48:30;;;;;;;1.88;1.13;;;;;;;22.17;22.28;100100.41;5112947;28;20032;-65
2022/05/01 07:50:56;;;;;;;4.32;1.50;;;;;;;22.13;22.05;100099.09;5111739;28;20398;-65
2022/05/01 07:53:22;;;;;;;1.60;1.00;;;;;;;22.11;22.02;100101.16;5111154;28;20051;-65
2022/05/01 07:55:47;;;;;;;3.03;1.17;;;;;;;22.08;22.18;100094.25;5110904;28;20494;-64
2022/05/01 07:58:13;;;;;;;2.53;1.30;;;;;;;22.07;22.26;100084.47;5112464;28;20044;-64
2022/05/01 08:00:38;;;;;;;2.95;1.60;;;;;;;22.12;22.13;100097.44;5111978;28;20420;-64
2022/05/01 08:05:48;;;;;;;4.03;1.02;;;;;;;22.15;22.05;100085.44;5112560;28;20039;-65
2022/05/01 08:08:13;;;;;;;2.05;1.20;;;;;;;22.15;22.03;100080.88;5111948;28;20035;-64
2022/05/01 08:10:39;;;;;;;2.63;1.45;;;;;;;22.13;21.85;100076.69;5111205;28;20100;-64
2022/05/01 08:13:04;;;;;;;2.15;1.08;;;;;;;22.12;22.00;100072.31;5112724;28;20066;-64
2022/05/01 08:15:30;;;;;;;2.10;1.10;;;;;;;22.10;22.02;100072.53;5111961;28;20478;-65
2022/05/01 08:21:05;;;;;;;2.17;1.30;;;;;;;22.13;22.03;100068.63;5111438;28;20496;-65
2022/05/01 08:23:26;;;;;;;3.05;1.38;;;;;;;22.09;21.78;100060.06;5112378;28;20381;-64
2022/05/01 08:25:51;;;;;;;1.52;1.00;;;;;;;22.09;21.73;100060.06;5111157;28;20043;-64
2022/05/01 08:28:16;;;;;;;3.65;1.23;;;;;;;22.08;21.75;100058.38;5111570;28;20035;-65
2022/05/01 08:30:42;;;;;;;3.05;1.17;;;;;;;22.08;21.98;100053.00;5111656;28;20054;-65
2022/05/01 08:33:07;;;;;;;1.70;1.08;;;;;;;22.10;22.02;100045.56;5111849;28;20062;-65
2022/05/01 08:35:33;;;;;;;2.20;1.00;;;;;;;22.10;21.77;100035.63;5111036;28;20035;-63
2022/05/01 08:37:58;;;;;;;1.48;1.10;;;;;;;22.14;21.78;100043.34;5112131;28;20479;-64
2022/05/01 08:40:26;;;;;;;2.65;1.27;;;;;;;22.13;21.73;100039.78;5110240;28;20095;-63
2022/05/01 08:42:52;;;;;;;1.73;1.10;;;;;;;22.16;21.80;100044.00;5112398;28;20031;-64
2022/05/01 08:45:25;;;;;;;2.20;1.15;;;;;;;22.14;21.84;100030.69;5112349;28;20118;-64
2022/05/01 08:48:07;;;;;;;2.40;1.25;;;;;;;22.10;21.60;100024.84;5111086;28;20038;-64
2022/05/01 08:50:38;;;;;;;4.18;1.10;;;;;;;22.08;21.63;100039.53;5111394;28;20390;-63
2022/05/01 08:53:06;;;;;;;7.00;1.55;;;;;;;22.05;21.86;100023.72;5111831;28;20067;-64
2022/05/01 08:55:32;;;;;;;2.67;1.52;;;;;;;22.06;21.81;100031.59;5114896;28;20043;-64
2022/05/01 08:57:59;;;;;;;3.05;1.15;;;;;;;22.07;22.01;100024.38;5114330;28;20084;-64
2022/05/01 09:00:30;;;;;;;2.50;1.05;;;;;;;22.08;22.03;100021.50;5111994;28;20023;-64
2022/05/01 09:02:56;;;;;;;1.85;1.05;;;;;;;22.08;22.32;100012.59;5105316;28;20502;-67
2022/05/01 09:05:21;;;;;;;5.13;1.70;;;;;;;22.10;22.04;100010.53;5105488;28;20047;-64
2022/05/01 09:07:47;;;;;;;2.15;1.17;;;;;;;22.11;21.99;100012.22;5111168;27;20035;-63
2022/05/01 09:10:14;;;;;;;6.80;1.35;;;;;;;22.08;22.05;100001.81;5109374;28;20048;-65
2022/05/01 09:12:49;;;;;;;4.97;1.85;;;;;;;22.13;22.41;100010.16;5104521;28;20645;-67
2022/05/01 09:15:30;;;;;;;2.13;1.50;;;;;;;22.14;22.23;100001.03;5106881;28;20032;-68
2022/05/01 09:18:04;;;;;;;3.22;1.60;;;;;;;22.16;22.38;99996.31;5110252;28;20063;-69
2022/05/01 09:20:30;;;;;;;2.65;1.42;;;;;;;22.18;22.21;99994.28;5113914;28;20036;-64
2022/05/01 09:22:58;;;;;;;8.75;1.42;;;;;;;22.24;23.09;100008.84;5110921;28;20058;-65
2022/05/01 09:25:27;;;;;;;6.40;1.20;;;;;;;22.35;23.42;100004.88;5112814;27;20042;-66
2022/05/01 09:27:56;;;;;;;5.55;1.50;;;;;;;22.51;23.57;99998.47;5111210;28;20126;-65
2022/05/01 09:30:31;;;;;;;11.88;1.30;;;;;;;22.61;23.63;99998.16;5110960;28;20094;-63
2022/05/01 09:32:57;;;;;;;3.33;2.17;;;;;;;22.72;23.55;99989.59;5105116;27;20393;-65
2022/05/01 09:35:22;;;;;;;2.80;1.35;;;;;;;22.85;23.55;99988.91;5107312;28;20051;-65
2022/05/01 09:37:48;;;;;;;3.78;1.63;;;;;;;22.93;23.33;99990.66;5111974;28;20035;-68
2022/05/01 09:40:30;;;;;;;5.60;1.92;;;;;;;22.93;23.09;99982.56;5097724;28;20032;-67
2022/05/01 09:42:55;;;;;;;2.38;1.30;;;;;;;22.88;23.02;99985.84;5104531;28;20043;-68
2022/05/01 09:45:30;;;;;;;13.18;3.17;;;;;;;22.88;23.22;99990.38;5103202;28;20036;-68
2022/05/01 09:47:56;;;;;;;2.50;1.75;;;;;;;22.90;22.91;99978.38;5112390;28;20130;-67
2022/05/01 09:50:43;;;;;;;3.58;2.03;;;;;;;22.88;22.91;99976.88;5096915;28;20127;-68
2022/05/01 09:53:09;;;;;;;5.07;1.90;;;;;;;22.84;23.35;99981.84;5108864;28;20320;-68
2022/05/01 09:55:36;;;;;;;5.50;1.85;;;;;;;22.92;23.46;99967.41;5109474;28;20790;-69
2022/05/01 09:58:14;;;;;;;2.25;1.50;;;;;;;22.94;22.76;99968.88;5110643;28;20054;-69
2022/05/01 10:00:47;;;;;;;5.10;2.00;;;;;;;22.96;23.45;99971.38;5101006;28;20032;-71
2022/05/01 10:03:28;;;;;;;5.65;1.90;;;;;;;23.04;23.45;99971.25;5107493;28;20035;-65
2022/05/01 10:05:56;;;;;;;4.68;1.95;;;;;;;23.11;23.40;99972.16;5103474;28;20058;-66
2022/05/01 10:08:22;;;;;;;2.95;1.50;;;;;;;23.20;23.26;99962.09;5110397;28;20482;-64
2022/05/01 10:10:56;;;;;;;4.75;2.00;;;;;;;23.18;22.90;99961.44;5110299;28;20031;-67
2022/05/01 10:13:24;;;;;;;3.40;2.08;;;;;;;23.18;22.92;99956.03;5095535;28;20028;-67
2022/05/01 10:15:51;;;;;;;3.10;1.83;;;;;;;23.20;23.57;99948.63;5106033;28;20092;-67
2022/05/01 10:18:18;;;;;;;6.03;2.00;;;;;;;23.24;23.16;99954.44;5108190;28;20096;-66
2022/05/01 10:20:43;;;;;;;3.83;2.10;;;;;;;23.26;23.23;99957.81;5093373;28;20039;-65
2022/05/01 10:23:12;;;;;;;4.13;1.63;;;;;;;23.29;23.11;99952.84;5101864;28;20035;-66
2022/05/01 10:25:44;;;;;;;5.72;2.50;;;;;;;23.26;22.80;99942.41;5114000;28;20065;-68
2022/05/01 10:28:48;;;;;;;4.40;2.33;;;;;;;23.23;22.57;99947.38;5104328;28;20028;-67
2022/05/01 10:34:51;;;;;;;4.60;2.00;;;;;;;23.24;22.57;99939.06;5103199;28;20034;-67
2022/05/01 10:37:19;;;;;;;3.30;1.55;;;;;;;23.25;22.75;99927.25;5103687;28;20038;-66
2022/05/01 10:39:46;;;;;;;3.85;1.60;;;;;;;23.27;23.02;99927.91;5098878;28;20062;-68
2022/05/01 10:42:11;;;;;;;5.60;1.85;;;;;;;23.31;23.13;99931.03;5104470;28;20031;-67
2022/05/01 10:44:38;;;;;;;4.05;2.00;;;;;;;23.33;22.97;99937.06;5093716;28;20032;-70
2022/05/01 10:47:37;;;;;;;2.50;1.63;;;;;;;23.37;22.12;99932.97;5104786;28;20114;-67
2022/05/01 10:50:08;;;;;;;2.85;1.60;;;;;;;23.36;22.46;99920.50;5113831;28;20042;-68
2022/05/01 10:52:34;;;;;;;4.95;1.63;;;;;;;23.37;22.44;99905.97;5113859;28;20055;-68
2022/05/01 10:55:07;;;;;;;2.65;1.58;;;;;;;23.41;22.50;99909.09;5113606;28;20505;-67
2022/05/01 10:57:33;;;;;;;4.05;2.20;;;;;;;23.46;22.18;99912.06;5113479;28;20031;-66
2022/05/01 11:00:11;;;;;;;4.25;1.85;;;;;;;23.49;22.37;99908.13;5114102;28;20077;-68
2022/05/01 11:02:42;;;;;;;4.53;1.85;;;;;;;23.53;22.07;99906.69;5113521;28;20024;-67
2022/05/01 11:05:10;;;;;;;4.47;2.08;;;;;;;23.57;22.09;99903.41;5113432;28;20554;-66
2022/05/01 11:07:39;;;;;;;3.28;1.70;;;;;;;23.63;22.22;99899.06;5113728;28;20448;-66
2022/05/01 11:10:08;;;;;;;5.20;2.05;;;;;;;23.65;22.17;99891.59;5113211;28;20067;-67
2022/05/01 11:12:35;;;;;;;4.35;2.42;;;;;;;23.65;21.78;99891.59;5113248;28;20122;-68
2022/05/01 11:15:08;;;;;;;2.83;1.70;;;;;;;23.68;22.00;99891.22;5113563;28;20540;-67
2022/05/01 11:17:33;;;;;;;3.67;2.08;;;;;;;23.68;22.23;99891.22;5113213;28;20059;-66
2022/05/01 11:20:08;;;;;;;3.45;2.00;;;;;;;23.70;22.44;99886.47;5113789;28;20438;-65
2022/05/01 11:22:35;;;;;;;3.33;1.90;;;;;;;23.72;22.48;99884.41;5113128;28;20073;-65
2022/05/01 11:25:00;;;;;;;3.53;1.88;;;;;;;23.70;21.96;99883.75;5113388;28;20122;-65
2022/05/01 11:27:26;;;;;;;4.88;2.08;;;;;;;23.63;21.96;99890.97;5112968;28;20477;-66
2022/05/01 11:30:27;;;;;;;7.57;2.38;;;;;;;23.60;22.38;99881.41;5113154;28;20055;-66
2022/05/01 11:32:59;;;;;;;5.40;2.05;;;;;;;23.64;22.62;99870.22;5098619;28;20054;-64
2022/05/01 11:35:50;;;;;;;4.90;1.52;;;;;;;23.69;22.15;99860.47;5113242;28;20035;-66
2022/05/01 11:38:15;;;;;;;2.05;1.63;;;;;;;23.75;21.94;99864.25;5112852;28;20429;-66
2022/05/01 11:41:01;;;;;;;3.38;1.88;;;;;;;23.78;22.28;99866.56;5112916;28;20135;-66
2022/05/01 11:43:28;;;;;;;3.13;1.73;;;;;;;23.82;22.53;99861.56;5113151;28;20110;-67
2022/05/01 11:45:58;;;;;;;5.93;2.42;;;;;;;23.85;22.59;99856.59;5112889;28;20037;-66
2022/05/01 11:48:24;;;;;;;4.32;1.73;;;;;;;23.87;22.29;99867.22;5113136;28;20114;-66
2022/05/01 11:50:52;;;;;;;3.05;2.03;;;;;;;23.89;22.33;99857.06;5112980;28;20394;-65
2022/05/01 11:53:24;;;;;;;1.90;1.35;;;;;;;23.91;21.93;99852.25;5113038;28;20053;-66